createdAt,value
2023-04-18T00:01:25.004Z,66.95
2023-04-18T00:03:45.893Z,67.85
2023-04-18T00:05:50.356Z,64.70
2023-04-18T00:07:54.558Z,86.05
2023-04-18T00:10:14.795Z,64.40
2023-04-18T00:12:21.531Z,58.47
2023-04-18T00:14:24.694Z,64.72
2023-04-18T00:16:29.309Z,63.88
2023-04-18T00:18:31.151Z,57.35
2023-04-18T00:20:34.257Z,60.33
2023-04-18T00:22:42.838Z,63.03
2023-04-18T00:24:44.453Z,59.60
2023-04-18T00:26:53.249Z,55.75
2023-04-18T00:28:58.526Z,53.15
2023-04-18T00:31:20.353Z,59.63
2023-04-18T00:33:25.070Z,57.67
2023-04-18T00:35:27.011Z,57.40
2023-04-18T00:37:30.248Z,52.13
2023-04-18T00:39:32.212Z,52.30
2023-04-18T00:41:33.652Z,48.47
2023-04-18T00:43:35.165Z,47.25
2023-04-18T00:45:39.902Z,46.97
2023-04-18T00:47:41.390Z,46.50
2023-04-18T00:49:46.137Z,42.88
2023-04-18T00:51:47.968Z,41.50
2023-04-18T00:53:53.197Z,42.75
2023-04-18T00:55:55.218Z,46.70
2023-04-18T00:58:15.160Z,50.92
2023-04-18T01:00:16.751Z,57.42
2023-04-18T01:02:23.625Z,50.95
2023-04-18T01:04:25.208Z,48.17
2023-04-18T01:06:27.370Z,45.70
2023-04-18T01:08:28.906Z,45.13
2023-04-18T01:10:30.591Z,40.60
2023-04-18T01:12:34.738Z,44.00
2023-04-18T01:14:42.798Z,44.95
2023-04-18T01:16:48.373Z,43.22
2023-04-18T01:18:56.252Z,42.20
2023-04-18T01:20:59.944Z,43.60
2023-04-18T01:23:01.538Z,46.75
2023-04-18T01:25:09.060Z,45.33
2023-04-18T01:27:14.104Z,39.38
2023-04-18T01:29:15.717Z,45.33
2023-04-18T01:31:17.298Z,42.67
2023-04-18T01:33:18.797Z,40.60
2023-04-18T01:35:23.165Z,48.20
2023-04-18T01:39:31.484Z,38.75
2023-04-18T01:41:33.157Z,39.88
2023-04-18T01:43:37.252Z,40.58
2023-04-18T01:45:41.561Z,45.45
2023-04-18T01:47:43.646Z,45.10
2023-04-18T01:50:05.314Z,44.70
2023-04-18T01:52:27.764Z,46.45
2023-04-18T01:54:29.615Z,50.47
2023-04-18T01:56:31.038Z,52.55
2023-04-18T01:58:37.121Z,48.53
2023-04-18T02:00:41.821Z,52.65
2023-04-18T02:02:46.529Z,50.75
2023-04-18T02:04:48.097Z,51.80
2023-04-18T02:06:49.589Z,52.90
2023-04-18T02:08:57.060Z,53.63
2023-04-18T02:11:02.018Z,51.05
2023-04-18T02:13:03.528Z,54.75
2023-04-18T02:15:08.071Z,54.92
2023-04-18T02:17:12.212Z,57.92
2023-04-18T02:19:13.641Z,58.05
2023-04-18T02:21:17.745Z,58.72
2023-04-18T02:23:25.206Z,58.65
2023-04-18T02:25:45.293Z,56.00
2023-04-18T02:27:46.723Z,58.85
2023-04-18T02:29:50.750Z,55.17
2023-04-18T02:31:53.786Z,55.20
2023-04-18T02:33:55.927Z,65.43
2023-04-18T02:38:03.557Z,59.30
2023-04-18T02:40:08.870Z,58.00
2023-04-18T02:42:10.290Z,52.53
2023-04-18T02:44:11.848Z,56.45
2023-04-18T02:46:16.558Z,52.30
2023-04-18T02:48:18.097Z,59.75
2023-04-18T02:50:22.878Z,59.08
2023-04-18T02:54:31.028Z,61.63
2023-04-18T02:56:39.907Z,67.90
2023-04-18T02:58:44.120Z,58.35
2023-04-18T03:00:49.940Z,56.22
2023-04-18T03:02:53.133Z,52.35
2023-04-18T03:04:57.617Z,64.95
2023-04-18T03:07:06.592Z,55.97
2023-04-18T03:09:08.118Z,57.55
2023-04-18T03:11:28.357Z,51.90
2023-04-18T03:13:32.731Z,52.03
2023-04-18T03:15:36.558Z,60.42
2023-04-18T03:17:43.538Z,61.25
2023-04-18T03:19:47.418Z,62.83
2023-04-18T03:21:57.074Z,60.13
2023-04-18T03:24:01.623Z,61.83
2023-04-18T03:26:09.089Z,54.60
2023-04-18T03:28:15.678Z,60.10
2023-04-18T03:30:19.710Z,64.47
2023-04-18T03:32:27.140Z,57.05
2023-04-18T03:34:33.810Z,59.08
2023-04-18T03:36:37.833Z,59.78
2023-04-18T03:38:44.801Z,58.60
2023-04-18T03:40:48.601Z,62.38
2023-04-18T03:42:55.092Z,62.47
2023-04-18T03:44:59.052Z,67.78
2023-04-18T03:47:05.457Z,65.50
2023-04-18T03:49:11.899Z,61.23
2023-04-18T03:51:15.866Z,66.25
2023-04-18T03:53:19.415Z,59.20
2023-04-18T03:55:26.489Z,63.95
2023-04-18T03:59:32.412Z,62.13
2023-04-18T04:01:37.190Z,62.30
2023-04-18T04:03:41.503Z,57.70
2023-04-18T04:05:43.161Z,58.58
2023-04-18T04:10:07.697Z,56.05
2023-04-18T04:12:09.096Z,53.30
2023-04-18T04:16:15.325Z,63.57
2023-04-18T04:18:16.934Z,55.90
2023-04-18T04:20:24.686Z,55.90
2023-04-18T04:22:44.969Z,59.07
2023-04-18T04:24:46.741Z,58.90
2023-04-18T04:27:07.031Z,55.85
2023-04-18T04:29:11.014Z,57.23
2023-04-18T04:31:12.496Z,59.53
2023-04-18T04:33:13.860Z,50.85
2023-04-18T04:35:15.486Z,52.92
2023-04-18T04:37:19.701Z,46.45
2023-04-18T04:39:21.244Z,50.30
2023-04-18T04:41:25.709Z,44.42
2023-04-18T04:43:28.739Z,45.38
2023-04-18T04:45:30.245Z,45.70
2023-04-18T04:47:31.747Z,49.72
2023-04-18T04:49:36.187Z,49.90
2023-04-18T04:51:37.884Z,55.60
2023-04-18T04:53:42.419Z,49.53
2023-04-18T04:55:46.916Z,48.25
2023-04-18T04:59:52.230Z,49.40
2023-04-18T05:01:57.437Z,48.28
2023-04-18T05:04:01.903Z,52.00
2023-04-18T05:06:06.169Z,47.72
2023-04-18T05:08:07.809Z,46.40
2023-04-18T05:10:11.995Z,47.85
2023-04-18T05:12:13.433Z,49.05
2023-04-18T05:14:17.853Z,50.33
2023-04-18T05:18:23.343Z,49.25
2023-04-18T05:20:24.781Z,51.08
2023-04-18T05:22:45.006Z,51.45
2023-04-18T05:24:46.978Z,49.67
2023-04-18T05:26:51.211Z,52.38
2023-04-18T05:31:02.362Z,53.05
2023-04-18T05:33:07.060Z,48.05
2023-04-18T05:35:11.758Z,54.08
2023-04-18T05:37:13.240Z,44.75
2023-04-18T05:39:14.673Z,43.47
2023-04-18T05:41:21.871Z,51.45
2023-04-18T05:43:23.415Z,42.33
2023-04-18T05:45:24.989Z,44.95
2023-04-18T05:47:30.347Z,47.72
2023-04-18T05:49:32.253Z,41.47
2023-04-18T05:51:36.313Z,46.03
2023-04-18T05:53:37.866Z,42.25
2023-04-18T05:55:41.107Z,42.53
2023-04-18T05:57:45.694Z,39.88
2023-04-18T05:59:50.048Z,38.50
2023-04-18T06:01:54.422Z,40.53
2023-04-18T06:03:58.896Z,38.97
2023-04-18T06:06:00.564Z,47.03
2023-04-18T06:08:20.711Z,37.05
2023-04-18T06:10:24.779Z,39.53
2023-04-18T06:12:26.322Z,36.30
2023-04-18T06:14:28.310Z,32.88
2023-04-18T06:16:29.761Z,37.72
2023-04-18T06:18:49.973Z,41.13
2023-04-18T06:20:57.204Z,35.60
2023-04-18T06:23:06.919Z,34.53
2023-04-18T06:25:17.172Z,34.20
2023-04-18T06:27:31.223Z,35.25
2023-04-18T06:29:37.910Z,36.05
2023-04-18T06:31:43.325Z,34.10
2023-04-18T06:33:47.229Z,33.43
2023-04-18T06:35:54.371Z,34.63
2023-04-18T06:38:01.372Z,32.05
2023-04-18T06:40:05.836Z,37.95
2023-04-18T06:42:09.825Z,32.83
2023-04-18T06:44:13.896Z,28.77
2023-04-18T06:46:20.744Z,28.50
2023-04-18T06:48:24.850Z,30.00
2023-04-18T06:50:31.618Z,23.95
2023-04-18T06:52:45.436Z,25.83
2023-04-18T06:54:51.846Z,22.95
2023-04-18T06:56:55.531Z,24.17
2023-04-18T06:58:57.458Z,20.20
2023-04-18T07:00:59.091Z,17.80
2023-04-18T07:03:02.160Z,18.80
2023-04-18T07:05:03.907Z,23.00
2023-04-18T07:07:08.051Z,20.88
2023-04-18T07:09:09.646Z,19.20
2023-04-18T07:11:13.145Z,16.10
2023-04-18T07:13:17.428Z,20.67
2023-04-18T07:15:18.822Z,19.17
2023-04-18T07:17:22.979Z,15.73
2023-04-18T07:19:24.448Z,15.35
2023-04-18T07:21:28.761Z,18.50
2023-04-18T07:23:30.258Z,15.02
2023-04-18T07:25:34.705Z,15.75
2023-04-18T07:27:39.255Z,18.90
2023-04-18T07:29:46.403Z,15.75
2023-04-18T07:31:50.970Z,15.43
2023-04-18T07:33:55.232Z,17.73
2023-04-18T07:36:01.230Z,14.65
2023-04-18T07:38:02.724Z,15.93
2023-04-18T07:40:10.409Z,17.77
2023-04-18T07:42:14.768Z,15.20
2023-04-18T07:44:22.445Z,15.20
2023-04-18T07:46:42.663Z,13.70
2023-04-18T07:48:47.237Z,14.30
2023-04-18T07:50:49.307Z,17.65
2023-04-18T07:52:50.732Z,17.92
2023-04-18T07:54:54.986Z,14.75
2023-04-18T07:56:56.825Z,14.05
2023-04-18T07:58:58.354Z,12.73
2023-04-18T08:00:59.866Z,12.50
2023-04-18T08:03:01.635Z,12.98
2023-04-18T08:05:21.642Z,12.27
2023-04-18T08:07:25.887Z,11.80
2023-04-18T08:09:27.524Z,13.98
2023-04-18T08:11:28.935Z,14.30
2023-04-18T08:13:30.590Z,14.93
2023-04-18T08:15:37.870Z,11.88
2023-04-18T08:17:39.356Z,13.10
2023-04-18T08:19:45.076Z,13.55
2023-04-18T08:22:10.187Z,12.90
2023-04-18T08:24:14.167Z,13.40
2023-04-18T08:26:15.660Z,12.57
2023-04-18T08:28:19.904Z,13.25
2023-04-18T08:30:24.122Z,11.90
2023-04-18T08:32:28.258Z,15.55
2023-04-18T08:34:38.490Z,16.00
2023-04-18T08:36:42.556Z,14.40
2023-04-18T08:38:47.902Z,14.57
2023-04-18T08:40:52.149Z,14.20
2023-04-18T08:42:54.335Z,14.90
2023-04-18T08:44:56.051Z,15.50
2023-04-18T08:47:01.561Z,18.13
2023-04-18T08:49:04.609Z,17.23
2023-04-18T08:51:24.638Z,16.17
2023-04-18T08:53:26.835Z,14.60
2023-04-18T08:55:50.503Z,16.92
2023-04-18T08:57:55.494Z,16.45
2023-04-18T09:00:07.998Z,17.70
2023-04-18T09:02:10.222Z,17.27
2023-04-18T09:04:13.953Z,20.55
2023-04-18T09:06:18.882Z,16.17
2023-04-18T09:08:26.280Z,19.67
2023-04-18T09:10:30.943Z,18.70
2023-04-18T09:12:42.325Z,18.27
2023-04-18T09:14:48.568Z,15.30
2023-04-18T09:16:53.398Z,14.55
2023-04-18T09:19:13.118Z,16.08
2023-04-18T09:21:21.311Z,13.80
2023-04-18T09:23:24.490Z,13.10
2023-04-18T09:27:34.395Z,14.70
2023-04-18T09:29:49.348Z,14.52
2023-04-18T09:32:08.118Z,18.05
2023-04-18T09:34:35.137Z,15.68
2023-04-18T09:39:03.146Z,14.30
2023-04-18T09:41:36.590Z,19.75
2023-04-18T09:43:52.422Z,14.73
2023-04-18T09:46:16.416Z,11.88
2023-04-18T09:48:31.331Z,16.08
2023-04-18T09:50:51.767Z,15.40
2023-04-18T09:53:09.775Z,14.13
2023-04-18T09:55:24.314Z,12.95
2023-04-18T09:57:37.695Z,14.25
2023-04-18T10:00:02.907Z,13.57
2023-04-18T10:02:22.950Z,15.48
2023-04-18T10:04:53.734Z,18.27
2023-04-18T10:07:21.472Z,14.93
2023-04-18T10:09:24.815Z,20.58
2023-04-18T10:11:30.780Z,14.30
2023-04-18T10:13:36.108Z,11.40
2023-04-18T10:15:43.608Z,13.55
2023-04-18T10:18:04.608Z,11.93
2023-04-18T10:20:08.407Z,15.40
2023-04-18T10:22:11.622Z,13.45
2023-04-18T10:24:53.440Z,13.77
2023-04-18T10:26:58.047Z,14.60
2023-04-18T10:29:00.823Z,14.55
2023-04-18T10:31:05.669Z,12.57
2023-04-18T10:33:30.406Z,10.68
2023-04-18T10:36:01.710Z,12.15
2023-04-18T10:38:03.133Z,13.57
2023-04-18T10:40:07.541Z,10.90
2023-04-18T10:42:12.038Z,12.52
2023-04-18T10:44:31.891Z,11.82
2023-04-18T10:46:51.962Z,9.57
2023-04-18T10:49:16.422Z,9.48
2023-04-18T10:51:21.956Z,9.48
2023-04-18T10:53:23.981Z,10.15
2023-04-18T10:55:29.272Z,12.10
2023-04-18T10:57:39.928Z,10.35
2023-04-18T10:59:41.946Z,7.68
2023-04-18T11:01:46.736Z,10.40
2023-04-18T11:03:51.254Z,11.45
2023-04-18T11:06:01.131Z,13.65
2023-04-18T11:10:08.918Z,11.07
2023-04-18T11:12:10.927Z,11.40
2023-04-18T11:14:12.772Z,10.55
2023-04-18T11:16:25.537Z,9.50
2023-04-18T11:18:27.051Z,14.27
2023-04-18T11:20:29.709Z,10.20
2023-04-18T11:22:31.392Z,10.13
2023-04-18T11:24:34.087Z,10.75
2023-04-18T11:26:38.839Z,10.40
2023-04-18T11:28:41.565Z,12.65
2023-04-18T11:31:02.850Z,8.73
2023-04-18T11:33:08.396Z,12.70
2023-04-18T11:35:13.903Z,8.07
2023-04-18T11:37:15.414Z,15.18
2023-04-18T11:39:17.160Z,12.77
2023-04-18T11:41:18.653Z,16.52
2023-04-18T11:43:21.001Z,13.57
2023-04-18T11:45:25.880Z,14.38
2023-04-18T11:47:46.478Z,12.15
2023-04-18T11:49:48.021Z,15.70
2023-04-18T11:51:52.072Z,12.02
2023-04-18T11:53:53.602Z,12.80
2023-04-18T11:55:55.809Z,14.75
2023-04-18T11:57:58.021Z,13.02
2023-04-18T12:00:02.148Z,13.32
2023-04-18T12:02:23.033Z,10.10
2023-04-18T12:04:27.861Z,15.05
2023-04-18T12:06:47.673Z,12.30
2023-04-18T12:08:49.123Z,11.45
2023-04-18T12:10:54.056Z,10.65
2023-04-18T12:12:59.130Z,12.98
2023-04-18T12:15:09.156Z,7.45
2023-04-18T12:17:12.807Z,9.27
2023-04-18T12:19:25.338Z,13.90
2023-04-18T12:21:30.217Z,13.52
2023-04-18T12:23:36.090Z,12.80
2023-04-18T12:25:40.409Z,10.98
2023-04-18T12:27:52.127Z,11.30
2023-04-18T12:29:53.554Z,7.72
2023-04-18T12:31:57.681Z,11.70
2023-04-18T12:34:00.060Z,8.20
2023-04-18T12:36:05.505Z,10.95
2023-04-18T12:38:34.148Z,6.45
2023-04-18T12:40:57.780Z,11.57
2023-04-18T12:43:16.779Z,8.90
2023-04-18T12:45:35.713Z,13.57
2023-04-18T12:48:04.034Z,8.75
2023-04-18T12:50:19.192Z,13.00
2023-04-18T12:52:43.243Z,10.00
2023-04-18T12:55:05.701Z,9.48
2023-04-18T12:57:32.271Z,9.80
2023-04-18T12:59:49.449Z,9.20
2023-04-18T13:02:12.456Z,11.15
2023-04-18T13:04:32.309Z,10.13
2023-04-18T13:06:54.797Z,10.18
2023-04-18T13:09:21.292Z,7.13
2023-04-18T13:11:43.695Z,12.88
2023-04-18T13:14:09.890Z,13.50
2023-04-18T13:16:16.194Z,10.77
2023-04-18T13:18:17.693Z,7.65
2023-04-18T13:20:22.203Z,11.07
2023-04-18T13:22:28.413Z,13.13
2023-04-18T13:24:29.920Z,11.35
2023-04-18T13:26:35.601Z,9.38
2023-04-18T13:28:37.064Z,9.40
2023-04-18T13:30:38.652Z,12.25
2023-04-18T13:32:43.931Z,8.27
2023-04-18T13:34:46.269Z,6.40
2023-04-18T13:36:47.712Z,13.45
2023-04-18T13:38:50.154Z,9.75
2023-04-18T13:41:08.589Z,12.73
2023-04-18T13:43:16.190Z,12.18
2023-04-18T13:45:20.739Z,8.65
2023-04-18T13:47:24.861Z,12.50
2023-04-18T13:49:29.283Z,9.32
2023-04-18T13:51:31.658Z,9.07
2023-04-18T13:53:36.218Z,12.23
2023-04-18T13:55:37.648Z,11.63
2023-04-18T13:57:39.200Z,8.70
2023-04-18T13:59:40.826Z,10.60
2023-04-18T14:01:44.940Z,9.90
2023-04-18T14:03:47.575Z,11.57
2023-04-18T14:05:52.133Z,9.57
2023-04-18T14:08:02.285Z,13.98
2023-04-18T14:10:04.121Z,12.68
2023-04-18T14:12:06.015Z,7.32
2023-04-18T14:14:07.825Z,7.55
2023-04-18T14:16:33.355Z,10.55
2023-04-18T14:18:34.870Z,10.02
2023-04-18T14:20:39.305Z,10.27
2023-04-18T14:22:40.756Z,10.00
2023-04-18T14:24:45.150Z,5.97
2023-04-18T14:26:49.476Z,7.32
2023-04-18T14:28:53.797Z,6.57
2023-04-18T14:31:01.336Z,4.93
2023-04-18T14:33:03.889Z,4.93
2023-04-18T14:35:07.142Z,8.50
2023-04-18T14:37:27.393Z,11.43
2023-04-18T14:39:31.720Z,10.75
2023-04-18T14:41:35.839Z,7.93
2023-04-18T14:43:37.231Z,11.32
2023-04-18T14:47:45.740Z,8.75
2023-04-18T14:49:50.034Z,12.20
2023-04-18T14:51:54.332Z,8.85
2023-04-18T14:54:14.573Z,9.60
2023-04-18T14:56:16.323Z,12.50
2023-04-18T14:58:17.794Z,9.70
2023-04-18T15:00:19.566Z,6.00
2023-04-18T15:02:23.862Z,12.27
2023-04-18T15:04:43.873Z,7.28
2023-04-18T15:06:45.562Z,8.63
2023-04-18T15:08:47.256Z,7.55
2023-04-18T15:11:08.169Z,10.98
2023-04-18T15:13:12.705Z,9.10
2023-04-18T15:15:17.248Z,9.32
2023-04-18T15:17:18.804Z,11.75
2023-04-18T15:19:20.541Z,9.20
2023-04-18T15:21:41.036Z,8.43
2023-04-18T15:23:42.489Z,9.25
2023-04-18T15:25:44.446Z,8.60
2023-04-18T15:27:46.042Z,10.57
2023-04-18T15:29:47.431Z,10.95
2023-04-18T15:31:51.446Z,12.05
2023-04-18T15:33:53.303Z,8.18
2023-04-18T15:35:57.612Z,9.65
2023-04-18T15:38:01.979Z,6.20
2023-04-18T15:40:09.589Z,8.23
2023-04-18T15:42:19.713Z,12.23
2023-04-18T15:44:35.511Z,7.88
2023-04-18T15:46:50.172Z,9.68
2023-04-18T15:49:01.640Z,6.32
2023-04-18T15:51:34.984Z,7.30
2023-04-18T15:53:40.455Z,8.80
2023-04-18T15:55:47.843Z,9.52
2023-04-18T15:57:56.293Z,6.05
2023-04-18T16:00:01.706Z,9.82
2023-04-18T16:02:15.663Z,8.85
2023-04-18T16:04:21.968Z,7.80
2023-04-18T16:06:50.522Z,7.45
2023-04-18T16:08:59.211Z,5.45
2023-04-18T16:11:26.446Z,4.78
2023-04-18T16:13:33.789Z,5.20
2023-04-18T16:15:44.281Z,5.82
2023-04-18T16:17:46.151Z,6.57
2023-04-18T16:19:47.700Z,7.35
2023-04-18T16:21:49.801Z,8.80
2023-04-18T16:23:51.346Z,5.68
2023-04-18T16:25:55.580Z,7.55
2023-04-18T16:27:59.709Z,11.02
2023-04-18T16:30:01.193Z,9.25
2023-04-18T16:32:21.692Z,8.98
2023-04-18T16:34:26.124Z,5.07
2023-04-18T16:36:32.479Z,7.40
2023-04-18T16:38:33.918Z,10.60
2023-04-18T16:40:38.146Z,10.70
2023-04-18T16:42:41.024Z,15.18
2023-04-18T16:44:45.342Z,13.95
2023-04-18T16:46:49.451Z,12.60
2023-04-18T16:48:53.834Z,16.15
2023-04-18T16:50:55.516Z,8.65
2023-04-18T16:52:59.978Z,10.70
2023-04-18T16:55:20.301Z,8.15
2023-04-18T16:57:21.776Z,6.47
2023-04-18T16:59:42.130Z,8.63
2023-04-18T17:01:43.879Z,6.20
2023-04-18T17:04:04.110Z,5.50
2023-04-18T17:06:08.402Z,6.25
2023-04-18T17:08:09.899Z,9.43
2023-04-18T17:10:11.592Z,6.70
2023-04-18T17:12:14.328Z,8.35
2023-04-18T17:14:17.471Z,7.28
2023-04-18T17:16:21.661Z,11.15
2023-04-18T17:18:23.363Z,6.15
2023-04-18T17:20:43.520Z,8.20
2023-04-18T17:22:47.566Z,6.10
2023-04-18T17:24:49.018Z,5.47
2023-04-18T17:26:50.541Z,8.20
2023-04-18T17:28:54.854Z,5.78
2023-04-18T17:31:01.400Z,4.75
2023-04-18T17:33:05.841Z,10.93
2023-04-18T17:35:08.047Z,7.93
2023-04-18T17:37:12.223Z,6.55
2023-04-18T17:39:32.840Z,5.93
2023-04-18T17:41:37.907Z,6.22
2023-04-18T17:43:39.360Z,5.15
2023-04-18T17:47:45.833Z,5.85
2023-04-18T17:49:47.307Z,11.07
2023-04-18T17:51:52.023Z,4.82
2023-04-18T17:53:53.533Z,5.47
2023-04-18T17:55:59.352Z,7.13
2023-04-18T17:58:19.987Z,9.10
2023-04-18T18:00:24.886Z,12.90
2023-04-18T18:02:28.435Z,11.10
2023-04-18T18:04:32.892Z,11.18
2023-04-18T18:06:37.837Z,5.55
2023-04-18T18:08:39.886Z,7.07
2023-04-18T18:10:41.484Z,7.15
2023-04-18T18:14:47.688Z,11.02
2023-04-18T18:16:49.327Z,7.97
2023-04-18T18:18:51.069Z,9.43
2023-04-18T18:20:52.569Z,11.93
2023-04-18T18:22:59.757Z,12.20
2023-04-18T18:25:01.394Z,17.63
2023-04-18T18:27:02.920Z,14.07
2023-04-18T18:29:09.163Z,9.63
2023-04-18T18:31:13.722Z,8.63
2023-04-18T18:33:18.937Z,9.90
2023-04-18T18:35:20.829Z,10.60
2023-04-18T18:37:26.603Z,13.70
2023-04-18T18:39:30.931Z,12.85
2023-04-18T18:41:32.420Z,11.63
2023-04-18T18:43:33.966Z,10.43
2023-04-18T18:45:35.622Z,14.57
2023-04-18T18:47:40.611Z,11.55
2023-04-18T18:49:46.877Z,15.48
2023-04-18T18:51:53.812Z,9.35
2023-04-18T18:56:02.132Z,12.38
2023-04-18T18:58:04.173Z,18.10
2023-04-18T19:00:09.382Z,11.82
2023-04-18T19:02:11.602Z,13.82
2023-04-18T19:04:13.521Z,14.70
2023-04-18T19:06:18.001Z,14.25
2023-04-18T19:08:19.592Z,13.13
2023-04-18T19:10:23.944Z,20.50
2023-04-18T19:12:25.813Z,14.75
2023-04-18T19:14:29.913Z,19.05
2023-04-18T19:16:31.838Z,11.73
2023-04-18T19:18:33.512Z,17.80
2023-04-18T19:20:35.040Z,13.80
2023-04-18T19:22:39.497Z,18.13
2023-04-18T19:24:40.947Z,16.77
2023-04-18T19:26:42.527Z,16.50
2023-04-18T19:28:43.996Z,15.77
2023-04-18T19:30:46.541Z,17.23
2023-04-18T19:33:06.815Z,19.00
2023-04-18T19:35:13.197Z,13.73
2023-04-18T19:37:17.729Z,15.93
2023-04-18T19:39:22.080Z,17.77
2023-04-18T19:41:24.521Z,15.45
2023-04-18T19:43:44.486Z,19.10
2023-04-18T19:45:46.149Z,19.58
2023-04-18T19:47:47.878Z,23.38
2023-04-18T19:49:49.303Z,19.75
2023-04-18T19:51:53.696Z,16.65
2023-04-18T19:53:58.051Z,21.35
2023-04-18T19:55:59.518Z,17.55
2023-04-18T19:58:05.175Z,18.42
2023-04-18T20:00:09.028Z,14.80
2023-04-18T20:02:13.354Z,17.20
2023-04-18T20:04:15.011Z,17.85
2023-04-18T20:06:16.988Z,16.95
2023-04-18T20:08:21.431Z,20.75
2023-04-18T20:10:23.020Z,18.10
2023-04-18T20:12:24.483Z,19.05
2023-04-18T20:14:27.044Z,18.13
2023-04-18T20:16:30.383Z,22.00
2023-04-18T20:18:34.489Z,24.23
2023-04-18T20:20:38.060Z,22.98
2023-04-18T20:22:45.793Z,19.77
2023-04-18T20:24:49.684Z,21.90
2023-04-18T20:26:52.857Z,22.35
2023-04-18T20:28:56.769Z,23.20
2023-04-18T20:31:00.643Z,26.65
2023-04-18T20:33:23.145Z,23.02
2023-04-18T20:35:28.748Z,27.65
2023-04-18T20:37:37.294Z,26.38
2023-04-18T20:39:43.309Z,23.48
2023-04-18T20:42:05.831Z,25.25
2023-04-18T20:44:14.601Z,19.65
2023-04-18T20:46:18.522Z,22.83
2023-04-18T20:48:22.597Z,22.58
2023-04-18T20:50:24.550Z,21.25
2023-04-18T20:52:26.021Z,20.33
2023-04-18T20:54:30.547Z,24.65
2023-04-18T20:56:36.025Z,20.17
2023-04-18T20:58:56.057Z,22.52
2023-04-18T21:00:57.582Z,23.77
2023-04-18T21:02:59.235Z,21.83
2023-04-18T21:05:03.623Z,23.00
2023-04-18T21:07:05.232Z,18.20
2023-04-18T21:09:07.438Z,23.63
2023-04-18T21:11:08.888Z,20.10
2023-04-18T21:15:14.290Z,21.98
2023-04-18T21:17:19.033Z,22.20
2023-04-18T21:19:23.557Z,20.75
2023-04-18T21:21:43.505Z,26.25
2023-04-18T21:25:51.591Z,24.25
2023-04-18T21:27:53.032Z,23.70
2023-04-18T21:29:54.532Z,21.67
2023-04-18T21:31:58.914Z,23.77
2023-04-18T21:34:04.281Z,28.20
2023-04-18T21:36:24.884Z,24.80
2023-04-18T21:38:26.420Z,21.50
2023-04-18T21:42:35.629Z,21.52
2023-04-18T21:44:37.019Z,375.20
2023-04-18T21:46:38.493Z,26.75
2023-04-18T21:48:43.814Z,27.90
2023-04-18T21:51:05.569Z,20.60
2023-04-18T21:53:15.450Z,21.73
2023-04-18T21:55:27.457Z,23.42
2023-04-18T21:57:35.182Z,19.65
2023-04-18T21:59:41.842Z,19.38
2023-04-18T22:01:54.772Z,16.35
2023-04-18T22:04:02.689Z,21.38
2023-04-18T22:06:13.264Z,17.98
2023-04-18T22:08:21.947Z,20.10
2023-04-18T22:10:25.899Z,24.85
2023-04-18T22:12:57.462Z,21.85
2023-04-18T22:15:08.194Z,21.35
2023-04-18T22:17:24.526Z,23.25
2023-04-18T22:19:33.234Z,26.90
2023-04-18T22:21:42.511Z,19.02
2023-04-18T22:23:52.823Z,23.23
2023-04-18T22:26:06.538Z,20.95
2023-04-18T22:28:12.405Z,22.25
2023-04-18T22:30:14.249Z,20.77
2023-04-18T22:32:34.619Z,23.77
2023-04-18T22:34:38.767Z,24.35
2023-04-18T22:36:40.650Z,26.05
2023-04-18T22:38:44.853Z,21.23
2023-04-18T22:42:53.395Z,22.37
2023-04-18T22:47:02.968Z,16.58
2023-04-18T22:49:04.427Z,20.73
2023-04-18T22:51:06.198Z,26.90
2023-04-18T22:53:11.191Z,20.92
2023-04-18T22:55:16.569Z,22.95
2023-04-18T22:57:18.048Z,28.27
2023-04-18T22:59:19.718Z,19.48
2023-04-18T23:01:23.906Z,22.63
2023-04-18T23:03:28.481Z,22.17
2023-04-18T23:05:30.054Z,21.90
2023-04-18T23:07:31.821Z,25.38
2023-04-18T23:09:36.004Z,23.85
2023-04-18T23:11:37.454Z,21.50
2023-04-18T23:13:38.939Z,22.08
2023-04-18T23:15:40.542Z,19.05
2023-04-18T23:17:44.804Z,21.98
2023-04-18T23:19:49.428Z,20.38
2023-04-18T23:21:50.883Z,20.00
2023-04-18T23:23:55.246Z,29.00
2023-04-18T23:25:56.891Z,21.20
2023-04-18T23:28:04.244Z,19.33
2023-04-18T23:30:06.362Z,19.80
2023-04-18T23:32:08.172Z,20.27
2023-04-18T23:34:10.146Z,19.10
2023-04-18T23:36:14.223Z,24.30
2023-04-18T23:38:15.679Z,23.85
2023-04-18T23:40:17.226Z,21.60
2023-04-18T23:42:21.459Z,19.92
2023-04-18T23:44:41.709Z,19.80
2023-04-18T23:48:47.464Z,19.88
2023-04-18T23:50:49.671Z,19.63
2023-04-18T23:52:51.260Z,20.30
2023-04-18T23:54:52.837Z,17.95
2023-04-18T23:56:54.275Z,20.58
